sensor_id;sensor_type;location;lat;lon;timestamp;temperature;humidity
1165;DHT22;571;50.930;6.926;2023-02-12T03:46:18;8.50;99.90
1165;DHT22;571;50.930;6.926;2023-02-12T03:48:51;8.50;99.90
1165;DHT22;571;50.930;6.926;2023-02-12T03:51:24;8.50;99.90
1165;DHT22;571;50.930;6.926;2023-02-12T03:53:54;8.50;99.90
1165;DHT22;571;50.930;6.926;2023-02-12T03:56:23;8.50;99.90
1165;DHT22;571;50.930;6.926;2023-02-12T03:58:51;8.60;99.90
1165;DHT22;571;50.930;6.926;2023-02-12T04:01:19;8.60;99.90
1165;DHT22;571;50.930;6.926;2023-02-12T04:03:46;8.60;99.90
1165;DHT22;571;50.930;6.926;2023-02-12T04:06:20;8.60;99.90
1165;DHT22;571;50.930;6.926;2023-02-12T04:08:47;8.50;99.90
1165;DHT22;571;50.930;6.926;2023-02-12T04:11:22;8.50;99.90
1165;DHT22;571;50.930;6.926;2023-02-12T04:14:02;8.50;99.90
1165;DHT22;571;50.930;6.926;2023-02-12T04:16:40;8.50;99.90
1165;DHT22;571;50.930;6.926;2023-02-12T04:19:12;8.50;99.90
1165;DHT22;571;50.930;6.926;2023-02-12T04:21:50;8.50;99.90
1165;DHT22;571;50.930;6.926;2023-02-12T04:24:27;8.50;99.90
1165;DHT22;571;50.930;6.926;2023-02-12T04:26:59;8.50;99.90
1165;DHT22;571;50.930;6.926;2023-02-12T04:29:31;8.40;99.90
1165;DHT22;571;50.930;6.926;2023-02-12T04:32:04;8.40;99.90
1165;DHT22;571;50.930;6.926;2023-02-12T04:34:38;8.40;99.90
1165;DHT22;571;50.930;6.926;2023-02-12T04:37:13;8.40;99.90
1165;DHT22;571;50.930;6.926;2023-02-12T04:39:43;8.40;99.90
1165;DHT22;571;50.930;6.926;2023-02-12T04:42:10;8.40;99.90
1165;DHT22;571;50.930;6.926;2023-02-12T04:44:39;8.50;99.90
1165;DHT22;571;50.930;6.926;2023-02-12T04:47:09;8.50;99.90
1165;DHT22;571;50.930;6.926;2023-02-12T04:49:36;8.60;99.90
1165;DHT22;571;50.930;6.926;2023-02-12T04:52:03;8.60;99.90
1165;DHT22;571;50.930;6.926;2023-02-12T04:54:30;8.60;99.90
1165;DHT22;571;50.930;6.926;2023-02-12T04:56:57;8.50;99.90
1165;DHT22;571;50.930;6.926;2023-02-12T04:59:24;8.50;99.90
1165;DHT22;571;50.930;6.926;2023-02-12T05:01:51;8.50;99.90
1165;DHT22;571;50.930;6.926;2023-02-12T05:04:19;8.60;99.90
1165;DHT22;571;50.930;6.926;2023-02-12T05:06:45;8.70;99.90
1165;DHT22;571;50.930;6.926;2023-02-12T05:09:14;8.70;99.90
1165;DHT22;571;50.930;6.926;2023-02-12T05:11:41;8.70;99.90
1165;DHT22;571;50.930;6.926;2023-02-12T05:14:08;8.70;99.90
1165;DHT22;571;50.930;6.926;2023-02-12T05:16:34;8.60;99.90
1165;DHT22;571;50.930;6.926;2023-02-12T05:19:01;8.60;99.90
1165;DHT22;571;50.930;6.926;2023-02-12T05:21:29;8.60;99.90
1165;DHT22;571;50.930;6.926;2023-02-12T05:23:56;8.60;99.90
1165;DHT22;571;50.930;6.926;2023-02-12T05:26:23;8.70;99.90
1165;DHT22;571;50.930;6.926;2023-02-12T05:28:49;8.70;99.90
1165;DHT22;571;50.930;6.926;2023-02-12T05:31:18;8.70;99.90
1165;DHT22;571;50.930;6.926;2023-02-12T05:33:45;8.60;99.90
1165;DHT22;571;50.930;6.926;2023-02-12T05:36:15;8.50;99.90
1165;DHT22;571;50.930;6.926;2023-02-12T05:38:44;8.50;99.90
1165;DHT22;571;50.930;6.926;2023-02-12T05:41:12;8.50;99.90
1165;DHT22;571;50.930;6.926;2023-02-12T05:43:40;8.50;99.90
1165;DHT22;571;50.930;6.926;2023-02-12T05:46:07;8.50;99.90
1165;DHT22;571;50.930;6.926;2023-02-12T05:48:35;8.50;99.90
1165;DHT22;571;50.930;6.926;2023-02-12T05:51:02;8.50;99.90
1165;DHT22;571;50.930;6.926;2023-02-12T05:53:30;8.50;99.90
1165;DHT22;571;50.930;6.926;2023-02-12T05:56:07;8.50;99.90
1165;DHT22;571;50.930;6.926;2023-02-12T05:58:34;8.40;99.90
1165;DHT22;571;50.930;6.926;2023-02-12T06:01:01;8.30;99.90
1165;DHT22;571;50.930;6.926;2023-02-12T06:03:28;8.40;99.90
1165;DHT22;571;50.930;6.926;2023-02-12T06:05:54;8.40;99.90
1165;DHT22;571;50.930;6.926;2023-02-12T06:08:21;8.30;99.90
1165;DHT22;571;50.930;6.926;2023-02-12T06:10:48;8.30;99.90
1165;DHT22;571;50.930;6.926;2023-02-12T06:13:16;8.30;99.90
1165;DHT22;571;50.930;6.926;2023-02-12T06:15:42;8.40;99.90
1165;DHT22;571;50.930;6.926;2023-02-12T06:18:09;8.40;99.90
1165;DHT22;571;50.930;6.926;2023-02-12T06:20:37;8.40;99.90
1165;DHT22;571;50.930;6.926;2023-02-12T06:23:04;8.50;99.90
1165;DHT22;571;50.930;6.926;2023-02-12T06:25:30;8.60;99.90
1165;DHT22;571;50.930;6.926;2023-02-12T06:27:57;8.60;99.90
1165;DHT22;571;50.930;6.926;2023-02-12T06:30:25;8.50;99.90
1165;DHT22;571;50.930;6.926;2023-02-12T06:32:52;8.50;99.90
1165;DHT22;571;50.930;6.926;2023-02-12T06:35:18;8.40;99.90
1165;DHT22;571;50.930;6.926;2023-02-12T06:37:45;8.40;99.90
1165;DHT22;571;50.930;6.926;2023-02-12T06:40:12;8.30;99.90
1165;DHT22;571;50.930;6.926;2023-02-12T06:42:39;8.30;99.90
1165;DHT22;571;50.930;6.926;2023-02-12T06:45:06;8.30;99.90
1165;DHT22;571;50.930;6.926;2023-02-12T06:47:34;8.30;99.90
1165;DHT22;571;50.930;6.926;2023-02-12T06:50:01;8.30;99.90
1165;DHT22;571;50.930;6.926;2023-02-12T06:52:28;8.50;99.90
1165;DHT22;571;50.930;6.926;2023-02-12T06:54:54;8.50;99.90
1165;DHT22;571;50.930;6.926;2023-02-12T06:57:21;8.50;99.90
1165;DHT22;571;50.930;6.926;2023-02-12T06:59:48;8.50;99.90
1165;DHT22;571;50.930;6.926;2023-02-12T07:02:15;8.50;99.90
1165;DHT22;571;50.930;6.926;2023-02-12T07:04:44;8.50;99.90
1165;DHT22;571;50.930;6.926;2023-02-12T07:07:11;8.60;99.90
1165;DHT22;571;50.930;6.926;2023-02-12T07:09:37;8.70;99.90
1165;DHT22;571;50.930;6.926;2023-02-12T07:12:04;8.80;99.90
1165;DHT22;571;50.930;6.926;2023-02-12T07:14:31;8.80;99.90
1165;DHT22;571;50.930;6.926;2023-02-12T07:16:58;8.70;99.90
1165;DHT22;571;50.930;6.926;2023-02-12T07:19:28;8.60;99.90
1165;DHT22;571;50.930;6.926;2023-02-12T07:21:56;8.60;99.90
1165;DHT22;571;50.930;6.926;2023-02-12T07:24:23;8.50;99.90
1165;DHT22;571;50.930;6.926;2023-02-12T07:26:49;8.60;99.90
1165;DHT22;571;50.930;6.926;2023-02-12T07:29:16;8.60;99.90
1165;DHT22;571;50.930;6.926;2023-02-12T07:31:43;8.50;99.90
1165;DHT22;571;50.930;6.926;2023-02-12T07:34:10;8.50;99.90
1165;DHT22;571;50.930;6.926;2023-02-12T07:36:37;8.60;99.90
1165;DHT22;571;50.930;6.926;2023-02-12T07:39:05;8.60;99.90
1165;DHT22;571;50.930;6.926;2023-02-12T07:41:33;8.60;99.90
1165;DHT22;571;50.930;6.926;2023-02-12T07:44:02;8.60;99.90
1165;DHT22;571;50.930;6.926;2023-02-12T07:46:33;8.60;99.90
1165;DHT22;571;50.930;6.926;2023-02-12T07:49:01;8.50;99.90
1165;DHT22;571;50.930;6.926;2023-02-12T07:51:30;8.50;99.90
1165;DHT22;571;50.930;6.926;2023-02-12T07:53:58;8.50;99.90
1165;DHT22;571;50.930;6.926;2023-02-12T07:56:28;8.60;99.90
1165;DHT22;571;50.930;6.926;2023-02-12T07:58:59;8.60;99.90
1165;DHT22;571;50.930;6.926;2023-02-12T08:01:27;8.60;99.90
1165;DHT22;571;50.930;6.926;2023-02-12T08:03:57;8.60;99.90
1165;DHT22;571;50.930;6.926;2023-02-12T08:06:26;8.60;99.90
1165;DHT22;571;50.930;6.926;2023-02-12T08:08:54;8.60;99.90
1165;DHT22;571;50.930;6.926;2023-02-12T08:11:21;8.70;99.90
1165;DHT22;571;50.930;6.926;2023-02-12T08:13:50;8.70;99.90
1165;DHT22;571;50.930;6.926;2023-02-12T08:16:18;8.70;99.90
1165;DHT22;571;50.930;6.926;2023-02-12T08:18:46;8.60;99.90
1165;DHT22;571;50.930;6.926;2023-02-12T08:21:14;8.50;99.90
1165;DHT22;571;50.930;6.926;2023-02-12T08:23:42;8.50;99.90
1165;DHT22;571;50.930;6.926;2023-02-12T08:26:12;8.50;99.90
1165;DHT22;571;50.930;6.926;2023-02-12T08:28:40;8.60;99.90
1165;DHT22;571;50.930;6.926;2023-02-12T08:31:10;8.70;99.90
1165;DHT22;571;50.930;6.926;2023-02-12T08:33:37;8.80;99.90
1165;DHT22;571;50.930;6.926;2023-02-12T08:36:05;8.70;99.90
1165;DHT22;571;50.930;6.926;2023-02-12T08:38:34;8.70;99.90
1165;DHT22;571;50.930;6.926;2023-02-12T08:41:01;8.60;99.90
1165;DHT22;571;50.930;6.926;2023-02-12T08:43:28;8.70;99.90
1165;DHT22;571;50.930;6.926;2023-02-12T08:46:00;8.70;99.90
1165;DHT22;571;50.930;6.926;2023-02-12T08:48:29;8.80;99.90
1165;DHT22;571;50.930;6.926;2023-02-12T08:50:55;8.80;99.90
1165;DHT22;571;50.930;6.926;2023-02-12T08:53:23;8.90;99.90
1165;DHT22;571;50.930;6.926;2023-02-12T08:55:50;9.20;99.90
1165;DHT22;571;50.930;6.926;2023-02-12T08:58:16;9.30;99.90
1165;DHT22;571;50.930;6.926;2023-02-12T09:00:43;9.40;99.90
1165;DHT22;571;50.930;6.926;2023-02-12T09:03:09;9.40;99.90
1165;DHT22;571;50.930;6.926;2023-02-12T09:05:39;9.50;99.90
1165;DHT22;571;50.930;6.926;2023-02-12T09:08:06;9.50;99.90
1165;DHT22;571;50.930;6.926;2023-02-12T09:10:33;9.60;99.90
1165;DHT22;571;50.930;6.926;2023-02-12T09:13:00;9.60;99.90
1165;DHT22;571;50.930;6.926;2023-02-12T09:15:26;9.60;99.90
1165;DHT22;571;50.930;6.926;2023-02-12T09:17:53;9.70;99.90
1165;DHT22;571;50.930;6.926;2023-02-12T09:20:20;9.80;99.90
1165;DHT22;571;50.930;6.926;2023-02-12T09:22:48;9.80;99.90
1165;DHT22;571;50.930;6.926;2023-02-12T09:25:14;9.80;99.90
1165;DHT22;571;50.930;6.926;2023-02-12T09:27:41;9.60;99.90
1165;DHT22;571;50.930;6.926;2023-02-12T09:30:09;9.60;99.90
1165;DHT22;571;50.930;6.926;2023-02-12T09:32:36;9.40;99.90
1165;DHT22;571;50.930;6.926;2023-02-12T09:35:03;9.40;99.90
1165;DHT22;571;50.930;6.926;2023-02-12T09:37:29;9.50;99.90
1165;DHT22;571;50.930;6.926;2023-02-12T09:39:57;9.40;99.90
1165;DHT22;571;50.930;6.926;2023-02-12T09:42:41;9.40;99.90
1165;DHT22;571;50.930;6.926;2023-02-12T09:45:19;9.60;99.90
1165;DHT22;571;50.930;6.926;2023-02-12T09:47:50;9.80;99.90
1165;DHT22;571;50.930;6.926;2023-02-12T09:50:36;9.80;99.90
1165;DHT22;571;50.930;6.926;2023-02-12T09:53:05;10.10;99.90
1165;DHT22;571;50.930;6.926;2023-02-12T09:55:36;10.00;99.90
1165;DHT22;571;50.930;6.926;2023-02-12T09:58:11;10.00;99.90
1165;DHT22;571;50.930;6.926;2023-02-12T10:00:42;10.10;99.90
1165;DHT22;571;50.930;6.926;2023-02-12T10:03:17;10.10;99.90
1165;DHT22;571;50.930;6.926;2023-02-12T10:05:57;10.20;99.90
1165;DHT22;571;50.930;6.926;2023-02-12T10:08:51;10.30;99.90
1165;DHT22;571;50.930;6.926;2023-02-12T10:11:46;10.20;99.90
1165;DHT22;571;50.930;6.926;2023-02-12T10:14:29;10.30;99.90
1165;DHT22;571;50.930;6.926;2023-02-12T10:17:14;10.30;99.90
1165;DHT22;571;50.930;6.926;2023-02-12T10:26:27;10.60;99.90
1165;DHT22;571;50.930;6.926;2023-02-12T10:32:22;10.80;99.90
1165;DHT22;571;50.930;6.926;2023-02-12T10:34:52;10.90;99.90
1165;DHT22;571;50.930;6.926;2023-02-12T10:37:27;10.90;99.90
1165;DHT22;571;50.930;6.926;2023-02-12T10:40:04;11.00;99.90
1165;DHT22;571;50.930;6.926;2023-02-12T10:42:37;10.90;99.90
1165;DHT22;571;50.930;6.926;2023-02-12T10:45:15;11.00;99.90
1165;DHT22;571;50.930;6.926;2023-02-12T10:47:51;11.10;99.90
1165;DHT22;571;50.930;6.926;2023-02-12T10:50:24;11.00;99.90
1165;DHT22;571;50.930;6.926;2023-02-12T10:52:56;10.90;99.90
1165;DHT22;571;50.930;6.926;2023-02-12T10:55:27;10.80;99.90
1165;DHT22;571;50.930;6.926;2023-02-12T10:57:57;10.80;99.90
1165;DHT22;571;50.930;6.926;2023-02-12T11:00:29;10.90;99.90
1165;DHT22;571;50.930;6.926;2023-02-12T11:03:18;11.00;99.90
1165;DHT22;571;50.930;6.926;2023-02-12T11:05:46;11.10;99.90
1165;DHT22;571;50.930;6.926;2023-02-12T11:08:30;11.30;99.90
1165;DHT22;571;50.930;6.926;2023-02-12T11:11:07;11.50;99.90
1165;DHT22;571;50.930;6.926;2023-02-12T11:13:35;11.50;99.60
1165;DHT22;571;50.930;6.926;2023-02-12T11:16:04;11.50;99.70
1165;DHT22;571;50.930;6.926;2023-02-12T11:18:32;11.50;99.80
1165;DHT22;571;50.930;6.926;2023-02-12T11:21:03;11.70;99.90
1165;DHT22;571;50.930;6.926;2023-02-12T11:23:31;11.60;99.90
1165;DHT22;571;50.930;6.926;2023-02-12T11:26:01;11.60;98.90
1165;DHT22;571;50.930;6.926;2023-02-12T11:28:28;11.50;99.20
1165;DHT22;571;50.930;6.926;2023-02-12T11:30:57;11.50;99.70
1165;DHT22;571;50.930;6.926;2023-02-12T11:33:31;11.40;99.90
1165;DHT22;571;50.930;6.926;2023-02-12T11:36:17;11.50;99.60
1165;DHT22;571;50.930;6.926;2023-02-12T11:38:49;11.60;99.10
1165;DHT22;571;50.930;6.926;2023-02-12T11:41:24;11.60;99.30
1165;DHT22;571;50.930;6.926;2023-02-12T11:43:53;11.60;99.30
1165;DHT22;571;50.930;6.926;2023-02-12T11:46:21;11.60;99.50
1165;DHT22;571;50.930;6.926;2023-02-12T11:48:51;11.60;99.30
1165;DHT22;571;50.930;6.926;2023-02-12T11:51:21;11.60;99.00
1165;DHT22;571;50.930;6.926;2023-02-12T11:53:51;11.60;99.10
1165;DHT22;571;50.930;6.926;2023-02-12T11:56:19;11.80;99.20
1165;DHT22;571;50.930;6.926;2023-02-12T11:58:47;11.80;98.70
1165;DHT22;571;50.930;6.926;2023-02-12T12:01:18;12.00;98.10
1165;DHT22;571;50.930;6.926;2023-02-12T12:03:54;11.90;98.00
1165;DHT22;571;50.930;6.926;2023-02-12T12:06:30;12.00;98.40
1165;DHT22;571;50.930;6.926;2023-02-12T12:09:04;11.90;97.90
1165;DHT22;571;50.930;6.926;2023-02-12T12:11:39;11.90;98.10
1165;DHT22;571;50.930;6.926;2023-02-12T12:14:19;11.80;98.60
1165;DHT22;571;50.930;6.926;2023-02-12T12:16:53;11.80;98.60
1165;DHT22;571;50.930;6.926;2023-02-12T12:19:46;11.80;98.10
1165;DHT22;571;50.930;6.926;2023-02-12T12:22:29;11.90;97.90
1165;DHT22;571;50.930;6.926;2023-02-12T12:25:03;11.90;98.20
1165;DHT22;571;50.930;6.926;2023-02-12T12:27:35;12.00;98.30
1165;DHT22;571;50.930;6.926;2023-02-12T12:30:27;12.10;97.90
1165;DHT22;571;50.930;6.926;2023-02-12T12:33:00;12.00;97.80
1165;DHT22;571;50.930;6.926;2023-02-12T12:35:35;12.00;98.10
1165;DHT22;571;50.930;6.926;2023-02-12T12:38:14;12.00;97.80
1165;DHT22;571;50.930;6.926;2023-02-12T12:40:51;12.00;98.00
1165;DHT22;571;50.930;6.926;2023-02-12T12:43:27;12.10;98.40
1165;DHT22;571;50.930;6.926;2023-02-12T12:46:20;12.10;98.10
1165;DHT22;571;50.930;6.926;2023-02-12T12:49:13;12.20;97.50
1165;DHT22;571;50.930;6.926;2023-02-12T12:52:01;12.40;97.40
1165;DHT22;571;50.930;6.926;2023-02-12T12:54:39;12.60;96.90
1165;DHT22;571;50.930;6.926;2023-02-12T12:57:16;12.70;97.00
1165;DHT22;571;50.930;6.926;2023-02-12T13:00:09;12.80;97.40
1165;DHT22;571;50.930;6.926;2023-02-12T13:03:09;12.70;96.50
1165;DHT22;571;50.930;6.926;2023-02-12T13:05:55;12.70;96.80
1165;DHT22;571;50.930;6.926;2023-02-12T13:08:43;12.80;97.40
1165;DHT22;571;50.930;6.926;2023-02-12T13:11:22;12.70;96.60
1165;DHT22;571;50.930;6.926;2023-02-12T13:14:03;12.60;96.90
1165;DHT22;571;50.930;6.926;2023-02-12T13:16:36;12.40;97.10
1165;DHT22;571;50.930;6.926;2023-02-12T13:19:11;12.50;97.30
1165;DHT22;571;50.930;6.926;2023-02-12T13:21:46;12.70;97.20
1165;DHT22;571;50.930;6.926;2023-02-12T13:24:24;12.90;96.30
1165;DHT22;571;50.930;6.926;2023-02-12T13:26:56;12.70;96.30
1165;DHT22;571;50.930;6.926;2023-02-12T13:29:26;12.50;96.40
1165;DHT22;571;50.930;6.926;2023-02-12T13:31:58;12.60;97.00
1165;DHT22;571;50.930;6.926;2023-02-12T13:34:28;12.60;96.90
1165;DHT22;571;50.930;6.926;2023-02-12T13:36:58;12.70;96.30
1165;DHT22;571;50.930;6.926;2023-02-12T13:39:30;12.80;96.90
1165;DHT22;571;50.930;6.926;2023-02-12T13:42:12;12.90;96.90
1165;DHT22;571;50.930;6.926;2023-02-12T13:44:49;13.20;96.30
1165;DHT22;571;50.930;6.926;2023-02-12T13:47:26;13.20;95.80
1165;DHT22;571;50.930;6.926;2023-02-12T13:50:00;13.10;95.90
1165;DHT22;571;50.930;6.926;2023-02-12T13:52:35;13.10;95.80
1165;DHT22;571;50.930;6.926;2023-02-12T13:55:16;13.10;95.80
1165;DHT22;571;50.930;6.926;2023-02-12T14:01:12;13.20;96.10
1165;DHT22;571;50.930;6.926;2023-02-12T14:04:13;13.10;95.80
1165;DHT22;571;50.930;6.926;2023-02-12T14:06:52;12.90;96.60
1165;DHT22;571;50.930;6.926;2023-02-12T14:09:20;13.00;95.90
1165;DHT22;571;50.930;6.926;2023-02-12T14:11:52;13.10;95.60
1165;DHT22;571;50.930;6.926;2023-02-12T14:14:26;12.80;96.00
1165;DHT22;571;50.930;6.926;2023-02-12T14:16:55;12.80;96.70
1165;DHT22;571;50.930;6.926;2023-02-12T14:25:36;12.80;96.70
1165;DHT22;571;50.930;6.926;2023-02-12T14:28:10;12.60;96.80
1165;DHT22;571;50.930;6.926;2023-02-12T14:30:41;12.60;97.00
1165;DHT22;571;50.930;6.926;2023-02-12T14:33:19;12.50;96.90
1165;DHT22;571;50.930;6.926;2023-02-12T14:35:47;12.70;97.00
1165;DHT22;571;50.930;6.926;2023-02-12T14:41:36;12.70;96.90
1165;DHT22;571;50.930;6.926;2023-02-12T14:49:58;12.60;97.00
1165;DHT22;571;50.930;6.926;2023-02-12T14:52:28;12.50;96.90
1165;DHT22;571;50.930;6.926;2023-02-12T14:54:58;12.50;96.80
1165;DHT22;571;50.930;6.926;2023-02-12T14:57:28;12.50;96.70
1165;DHT22;571;50.930;6.926;2023-02-12T14:59:58;12.60;97.00
1165;DHT22;571;50.930;6.926;2023-02-12T15:02:27;12.70;96.90
1165;DHT22;571;50.930;6.926;2023-02-12T15:05:00;12.60;96.20
1165;DHT22;571;50.930;6.926;2023-02-12T15:07:30;12.60;96.00
1165;DHT22;571;50.930;6.926;2023-02-12T15:10:02;12.60;95.50
1165;DHT22;571;50.930;6.926;2023-02-12T15:12:37;12.50;96.30
1165;DHT22;571;50.930;6.926;2023-02-12T15:15:11;12.50;96.00
1165;DHT22;571;50.930;6.926;2023-02-12T15:17:43;12.40;96.10
1165;DHT22;571;50.930;6.926;2023-02-12T15:20:21;12.30;96.20
1165;DHT22;571;50.930;6.926;2023-02-12T15:22:49;12.30;96.70
1165;DHT22;571;50.930;6.926;2023-02-12T15:25:21;12.40;96.50
1165;DHT22;571;50.930;6.926;2023-02-12T15:27:50;12.30;96.50
1165;DHT22;571;50.930;6.926;2023-02-12T15:30:19;12.40;96.80
1165;DHT22;571;50.930;6.926;2023-02-12T15:32:47;12.30;96.60
1165;DHT22;571;50.930;6.926;2023-02-12T15:35:23;12.20;96.90
1165;DHT22;571;50.930;6.926;2023-02-12T15:37:51;12.20;97.30
1165;DHT22;571;50.930;6.926;2023-02-12T15:40:18;12.30;97.30
1165;DHT22;571;50.930;6.926;2023-02-12T15:42:53;12.50;96.90
1165;DHT22;571;50.930;6.926;2023-02-12T15:45:23;12.50;96.60
1165;DHT22;571;50.930;6.926;2023-02-12T15:47:58;12.50;96.90
1165;DHT22;571;50.930;6.926;2023-02-12T15:50:27;12.50;96.50
1165;DHT22;571;50.930;6.926;2023-02-12T15:52:54;12.40;96.80
1165;DHT22;571;50.930;6.926;2023-02-12T15:55:23;12.20;96.60
1165;DHT22;571;50.930;6.926;2023-02-12T15:57:53;12.20;97.20
1165;DHT22;571;50.930;6.926;2023-02-12T16:00:31;12.20;97.50
1165;DHT22;571;50.930;6.926;2023-02-12T16:03:01;12.30;97.00
1165;DHT22;571;50.930;6.926;2023-02-12T16:05:29;12.30;97.10
1165;DHT22;571;50.930;6.926;2023-02-12T16:08:13;12.20;97.00
1165;DHT22;571;50.930;6.926;2023-02-12T16:10:42;12.10;97.40
1165;DHT22;571;50.930;6.926;2023-02-12T16:13:13;12.10;97.30
1165;DHT22;571;50.930;6.926;2023-02-12T16:15:42;12.00;97.40
1165;DHT22;571;50.930;6.926;2023-02-12T16:18:22;11.90;97.50
1165;DHT22;571;50.930;6.926;2023-02-12T16:21:02;11.90;97.80
1165;DHT22;571;50.930;6.926;2023-02-12T16:26:04;12.00;97.60
1165;DHT22;571;50.930;6.926;2023-02-12T16:28:31;11.90;98.00
1165;DHT22;571;50.930;6.926;2023-02-12T16:31:09;12.00;97.90
1165;DHT22;571;50.930;6.926;2023-02-12T16:33:42;11.90;97.60
1165;DHT22;571;50.930;6.926;2023-02-12T16:36:26;11.80;97.90
1165;DHT22;571;50.930;6.926;2023-02-12T16:38:56;11.70;98.10
1165;DHT22;571;50.930;6.926;2023-02-12T16:41:25;11.60;98.30
1165;DHT22;571;50.930;6.926;2023-02-12T16:44:24;11.60;98.70
1165;DHT22;571;50.930;6.926;2023-02-12T16:46:53;11.50;98.70
1165;DHT22;571;50.930;6.926;2023-02-12T16:49:23;11.50;98.30
1165;DHT22;571;50.930;6.926;2023-02-12T16:51:52;11.50;98.40
1165;DHT22;571;50.930;6.926;2023-02-12T16:54:27;11.60;98.40
1165;DHT22;571;50.930;6.926;2023-02-12T16:56:54;11.70;98.20
1165;DHT22;571;50.930;6.926;2023-02-12T16:59:21;11.60;98.30
1165;DHT22;571;50.930;6.926;2023-02-12T17:01:59;11.50;98.50
1165;DHT22;571;50.930;6.926;2023-02-12T17:04:27;11.50;98.60
1165;DHT22;571;50.930;6.926;2023-02-12T17:06:55;11.60;98.50
1165;DHT22;571;50.930;6.926;2023-02-12T17:09:22;11.60;98.40
1165;DHT22;571;50.930;6.926;2023-02-12T17:11:51;11.60;98.40
1165;DHT22;571;50.930;6.926;2023-02-12T17:14:19;11.60;98.50
1165;DHT22;571;50.930;6.926;2023-02-12T17:16:46;11.60;98.50
1165;DHT22;571;50.930;6.926;2023-02-12T17:19:14;11.50;98.50
1165;DHT22;571;50.930;6.926;2023-02-12T17:21:42;11.60;98.50
1165;DHT22;571;50.930;6.926;2023-02-12T17:24:15;11.50;98.50
1165;DHT22;571;50.930;6.926;2023-02-12T17:26:43;11.50;98.80
1165;DHT22;571;50.930;6.926;2023-02-12T17:29:10;11.50;98.50
1165;DHT22;571;50.930;6.926;2023-02-12T17:31:37;11.50;98.80
1165;DHT22;571;50.930;6.926;2023-02-12T17:34:04;11.50;98.80
1165;DHT22;571;50.930;6.926;2023-02-12T17:36:31;11.40;98.80
1165;DHT22;571;50.930;6.926;2023-02-12T17:38:58;11.40;98.90
1165;DHT22;571;50.930;6.926;2023-02-12T17:41:26;11.40;98.80
1165;DHT22;571;50.930;6.926;2023-02-12T17:43:53;11.40;98.80
1165;DHT22;571;50.930;6.926;2023-02-12T17:46:22;11.40;98.80
1165;DHT22;571;50.930;6.926;2023-02-12T17:48:49;11.40;98.60
1165;DHT22;571;50.930;6.926;2023-02-12T17:51:16;11.40;98.80
1165;DHT22;571;50.930;6.926;2023-02-12T17:53:43;11.30;98.80
1165;DHT22;571;50.930;6.926;2023-02-12T17:56:11;11.20;99.00
1165;DHT22;571;50.930;6.926;2023-02-12T17:58:41;11.30;99.00
1165;DHT22;571;50.930;6.926;2023-02-12T18:01:10;11.20;99.00
1165;DHT22;571;50.930;6.926;2023-02-12T18:03:37;11.20;99.10
1165;DHT22;571;50.930;6.926;2023-02-12T18:06:05;11.10;99.20
1165;DHT22;571;50.930;6.926;2023-02-12T18:08:32;11.10;99.30
1165;DHT22;571;50.930;6.926;2023-02-12T18:11:04;11.10;99.20
1165;DHT22;571;50.930;6.926;2023-02-12T18:13:30;11.20;99.20
1165;DHT22;571;50.930;6.926;2023-02-12T18:15:59;11.20;99.10
1165;DHT22;571;50.930;6.926;2023-02-12T18:18:25;11.10;99.30
1165;DHT22;571;50.930;6.926;2023-02-12T18:20:52;11.10;99.40
1165;DHT22;571;50.930;6.926;2023-02-12T18:23:19;11.10;99.40
1165;DHT22;571;50.930;6.926;2023-02-12T18:25:45;11.10;99.50
1165;DHT22;571;50.930;6.926;2023-02-12T18:28:12;11.10;99.30
1165;DHT22;571;50.930;6.926;2023-02-12T18:30:39;11.20;99.10
1165;DHT22;571;50.930;6.926;2023-02-12T18:33:09;11.20;99.10
1165;DHT22;571;50.930;6.926;2023-02-12T18:35:36;11.10;99.10
1165;DHT22;571;50.930;6.926;2023-02-12T18:38:06;11.10;99.30
1165;DHT22;571;50.930;6.926;2023-02-12T18:40:32;11.10;99.30
1165;DHT22;571;50.930;6.926;2023-02-12T18:43:00;11.10;99.10
1165;DHT22;571;50.930;6.926;2023-02-12T18:45:26;11.10;99.20
1165;DHT22;571;50.930;6.926;2023-02-12T18:47:53;11.10;99.10
1165;DHT22;571;50.930;6.926;2023-02-12T18:50:21;11.10;99.30
1165;DHT22;571;50.930;6.926;2023-02-12T18:52:48;11.10;99.40
1165;DHT22;571;50.930;6.926;2023-02-12T18:55:15;11.10;99.30
1165;DHT22;571;50.930;6.926;2023-02-12T18:57:41;11.10;99.10
1165;DHT22;571;50.930;6.926;2023-02-12T19:00:09;11.10;99.30
1165;DHT22;571;50.930;6.926;2023-02-12T19:02:35;11.10;99.10
1165;DHT22;571;50.930;6.926;2023-02-12T19:05:02;11.20;99.20
1165;DHT22;571;50.930;6.926;2023-02-12T19:07:30;11.20;99.10
1165;DHT22;571;50.930;6.926;2023-02-12T19:09:57;11.10;99.10
1165;DHT22;571;50.930;6.926;2023-02-12T19:12:24;11.10;99.10
1165;DHT22;571;50.930;6.926;2023-02-12T19:14:51;11.10;99.30
1165;DHT22;571;50.930;6.926;2023-02-12T19:17:18;11.10;99.30
1165;DHT22;571;50.930;6.926;2023-02-12T19:19:44;11.10;99.30
1165;DHT22;571;50.930;6.926;2023-02-12T19:22:14;11.10;99.30
1165;DHT22;571;50.930;6.926;2023-02-12T19:24:42;11.00;99.50
1165;DHT22;571;50.930;6.926;2023-02-12T19:27:09;11.00;99.50
1165;DHT22;571;50.930;6.926;2023-02-12T19:29:36;11.00;99.70
1165;DHT22;571;50.930;6.926;2023-02-12T19:32:02;11.00;99.80
1165;DHT22;571;50.930;6.926;2023-02-12T19:34:29;11.00;99.50
1165;DHT22;571;50.930;6.926;2023-02-12T19:36:56;11.00;99.50
1165;DHT22;571;50.930;6.926;2023-02-12T19:39:23;11.00;99.70
1165;DHT22;571;50.930;6.926;2023-02-12T19:41:52;11.10;99.60
1165;DHT22;571;50.930;6.926;2023-02-12T19:44:22;11.00;99.90
1165;DHT22;571;50.930;6.926;2023-02-12T19:46:50;11.00;99.90
1165;DHT22;571;50.930;6.926;2023-02-12T19:49:19;10.90;99.80
1165;DHT22;571;50.930;6.926;2023-02-12T19:51:46;10.90;99.90
1165;DHT22;571;50.930;6.926;2023-02-12T19:54:15;10.80;99.90
1165;DHT22;571;50.930;6.926;2023-02-12T19:56:42;10.80;99.90
1165;DHT22;571;50.930;6.926;2023-02-12T19:59:12;10.80;99.90
1165;DHT22;571;50.930;6.926;2023-02-12T20:01:39;10.90;99.90
1165;DHT22;571;50.930;6.926;2023-02-12T20:04:06;10.90;99.90
1165;DHT22;571;50.930;6.926;2023-02-12T20:06:34;10.90;99.90
1165;DHT22;571;50.930;6.926;2023-02-12T20:09:01;10.90;99.90
1165;DHT22;571;50.930;6.926;2023-02-12T20:11:30;10.80;99.90
1165;DHT22;571;50.930;6.926;2023-02-12T20:14:01;10.80;99.90
1165;DHT22;571;50.930;6.926;2023-02-12T20:16:30;10.90;99.90
1165;DHT22;571;50.930;6.926;2023-02-12T20:19:01;10.80;99.90
1165;DHT22;571;50.930;6.926;2023-02-12T20:21:28;10.80;99.90
1165;DHT22;571;50.930;6.926;2023-02-12T20:23:56;10.80;99.90
1165;DHT22;571;50.930;6.926;2023-02-12T20:26:24;10.70;99.90
1165;DHT22;571;50.930;6.926;2023-02-12T20:28:51;10.80;99.90
1165;DHT22;571;50.930;6.926;2023-02-12T20:31:20;10.90;99.90
1165;DHT22;571;50.930;6.926;2023-02-12T20:33:52;10.90;99.90
1165;DHT22;571;50.930;6.926;2023-02-12T20:36:20;10.90;99.90
1165;DHT22;571;50.930;6.926;2023-02-12T20:38:51;10.90;99.90
1165;DHT22;571;50.930;6.926;2023-02-12T20:41:36;10.90;99.90
1165;DHT22;571;50.930;6.926;2023-02-12T20:44:07;10.90;99.90
1165;DHT22;571;50.930;6.926;2023-02-12T20:46:51;10.90;99.90
1165;DHT22;571;50.930;6.926;2023-02-12T20:49:22;10.90;99.90
1165;DHT22;571;50.930;6.926;2023-02-12T20:51:55;10.90;99.90
1165;DHT22;571;50.930;6.926;2023-02-12T20:54:32;10.80;99.90
1165;DHT22;571;50.930;6.926;2023-02-12T20:57:02;10.80;99.90
1165;DHT22;571;50.930;6.926;2023-02-12T20:59:31;10.70;99.90
1165;DHT22;571;50.930;6.926;2023-02-12T21:01:58;10.70;99.90
1165;DHT22;571;50.930;6.926;2023-02-12T21:04:32;10.60;99.90